sensor_id;sensor_type;location;lat;lon;timestamp;P1;durP1;ratioP1;P2;durP2;ratioP2
49237;SDS011;35069;47.906;1.892;2023-02-19T00:00:00;2.60;;;2.30;;
49237;SDS011;35069;47.906;1.892;2023-02-19T00:02:26;2.95;;;2.40;;
49237;SDS011;35069;47.906;1.892;2023-02-19T00:04:51;4.95;;;2.22;;
49237;SDS011;35069;47.906;1.892;2023-02-19T00:07:17;4.20;;;2.50;;
49237;SDS011;35069;47.906;1.892;2023-02-19T00:09:42;5.40;;;2.92;;
49237;SDS011;35069;47.906;1.892;2023-02-19T00:12:08;2.53;;;2.33;;
49237;SDS011;35069;47.906;1.892;2023-02-19T00:14:33;5.65;;;2.90;;
49237;SDS011;35069;47.906;1.892;2023-02-19T00:16:59;3.40;;;2.80;;
49237;SDS011;35069;47.906;1.892;2023-02-19T00:19:25;2.83;;;2.53;;
49237;SDS011;35069;47.906;1.892;2023-02-19T00:21:52;4.22;;;2.58;;
49237;SDS011;35069;47.906;1.892;2023-02-19T00:24:18;4.53;;;3.20;;
49237;SDS011;35069;47.906;1.892;2023-02-19T00:26:44;4.70;;;2.92;;
49237;SDS011;35069;47.906;1.892;2023-02-19T00:29:15;4.30;;;2.83;;
49237;SDS011;35069;47.906;1.892;2023-02-19T00:31:42;4.03;;;2.50;;
49237;SDS011;35069;47.906;1.892;2023-02-19T00:34:09;6.00;;;3.00;;
49237;SDS011;35069;47.906;1.892;2023-02-19T00:36:36;2.15;;;1.92;;
49237;SDS011;35069;47.906;1.892;2023-02-19T00:39:03;4.88;;;2.60;;
49237;SDS011;35069;47.906;1.892;2023-02-19T00:41:31;5.28;;;3.28;;
49237;SDS011;35069;47.906;1.892;2023-02-19T00:44:01;4.95;;;2.53;;
49237;SDS011;35069;47.906;1.892;2023-02-19T00:46:30;3.00;;;2.50;;
49237;SDS011;35069;47.906;1.892;2023-02-19T00:49:00;4.80;;;2.30;;
49237;SDS011;35069;47.906;1.892;2023-02-19T00:51:28;3.17;;;2.17;;
49237;SDS011;35069;47.906;1.892;2023-02-19T00:53:56;4.55;;;3.10;;
49237;SDS011;35069;47.906;1.892;2023-02-19T00:56:22;4.47;;;2.80;;
49237;SDS011;35069;47.906;1.892;2023-02-19T00:58:48;4.30;;;2.83;;
49237;SDS011;35069;47.906;1.892;2023-02-19T01:01:14;3.80;;;2.72;;
49237;SDS011;35069;47.906;1.892;2023-02-19T01:03:40;7.97;;;2.90;;
49237;SDS011;35069;47.906;1.892;2023-02-19T01:06:07;6.55;;;2.63;;
49237;SDS011;35069;47.906;1.892;2023-02-19T01:08:34;4.60;;;2.33;;
49237;SDS011;35069;47.906;1.892;2023-02-19T01:11:00;5.43;;;2.95;;
49237;SDS011;35069;47.906;1.892;2023-02-19T01:13:27;5.40;;;2.92;;
49237;SDS011;35069;47.906;1.892;2023-02-19T01:15:55;4.13;;;2.20;;
49237;SDS011;35069;47.906;1.892;2023-02-19T01:18:27;2.30;;;2.10;;
49237;SDS011;35069;47.906;1.892;2023-02-19T01:20:54;2.20;;;2.10;;
49237;SDS011;35069;47.906;1.892;2023-02-19T01:23:20;3.13;;;2.35;;
49237;SDS011;35069;47.906;1.892;2023-02-19T01:25:45;5.68;;;2.45;;
49237;SDS011;35069;47.906;1.892;2023-02-19T01:28:11;3.92;;;1.80;;
49237;SDS011;35069;47.906;1.892;2023-02-19T01:30:37;2.45;;;2.17;;
49237;SDS011;35069;47.906;1.892;2023-02-19T01:33:04;4.45;;;1.90;;
49237;SDS011;35069;47.906;1.892;2023-02-19T01:35:30;3.22;;;1.85;;
49237;SDS011;35069;47.906;1.892;2023-02-19T01:37:56;5.15;;;2.15;;
49237;SDS011;35069;47.906;1.892;2023-02-19T01:40:22;5.05;;;2.35;;
49237;SDS011;35069;47.906;1.892;2023-02-19T01:42:47;2.80;;;2.55;;
49237;SDS011;35069;47.906;1.892;2023-02-19T01:45:31;3.45;;;2.00;;
49237;SDS011;35069;47.906;1.892;2023-02-19T01:48:03;5.25;;;2.42;;
49237;SDS011;35069;47.906;1.892;2023-02-19T01:50:47;19.50;;;3.67;;
49237;SDS011;35069;47.906;1.892;2023-02-19T01:53:23;4.68;;;2.75;;
49237;SDS011;35069;47.906;1.892;2023-02-19T01:55:54;3.33;;;2.50;;
49237;SDS011;35069;47.906;1.892;2023-02-19T01:58:22;4.82;;;2.17;;
49237;SDS011;35069;47.906;1.892;2023-02-19T02:00:50;3.00;;;2.80;;
49237;SDS011;35069;47.906;1.892;2023-02-19T02:03:16;3.85;;;2.22;;
49237;SDS011;35069;47.906;1.892;2023-02-19T02:05:44;3.00;;;1.88;;
49237;SDS011;35069;47.906;1.892;2023-02-19T02:08:19;5.05;;;2.53;;
49237;SDS011;35069;47.906;1.892;2023-02-19T02:11:04;3.60;;;2.67;;
49237;SDS011;35069;47.906;1.892;2023-02-19T02:13:31;3.28;;;2.50;;
49237;SDS011;35069;47.906;1.892;2023-02-19T02:16:05;2.97;;;2.42;;
49237;SDS011;35069;47.906;1.892;2023-02-19T02:18:57;5.30;;;2.83;;
49237;SDS011;35069;47.906;1.892;2023-02-19T02:38:29;10.48;;;3.38;;
49237;SDS011;35069;47.906;1.892;2023-02-19T02:40:57;7.55;;;3.60;;
49237;SDS011;35069;47.906;1.892;2023-02-19T02:43:23;7.25;;;3.22;;
49237;SDS011;35069;47.906;1.892;2023-02-19T02:45:49;6.72;;;3.97;;
49237;SDS011;35069;47.906;1.892;2023-02-19T02:48:20;3.67;;;2.85;;
49237;SDS011;35069;47.906;1.892;2023-02-19T02:50:55;3.33;;;2.70;;
49237;SDS011;35069;47.906;1.892;2023-02-19T02:53:29;6.53;;;2.55;;
49237;SDS011;35069;47.906;1.892;2023-02-19T02:56:22;3.88;;;3.03;;
49237;SDS011;35069;47.906;1.892;2023-02-19T02:58:49;2.70;;;2.40;;
49237;SDS011;35069;47.906;1.892;2023-02-19T03:01:19;2.25;;;2.08;;
49237;SDS011;35069;47.906;1.892;2023-02-19T03:04:14;5.55;;;2.88;;
49237;SDS011;35069;47.906;1.892;2023-02-19T03:06:54;3.20;;;2.28;;
49237;SDS011;35069;47.906;1.892;2023-02-19T03:09:26;4.43;;;3.08;;
49237;SDS011;35069;47.906;1.892;2023-02-19T03:12:04;5.80;;;2.95;;
49237;SDS011;35069;47.906;1.892;2023-02-19T03:14:52;4.10;;;3.03;;
49237;SDS011;35069;47.906;1.892;2023-02-19T03:17:43;4.88;;;3.45;;
49237;SDS011;35069;47.906;1.892;2023-02-19T03:20:39;3.45;;;3.00;;
49237;SDS011;35069;47.906;1.892;2023-02-19T03:23:08;3.92;;;2.58;;
49237;SDS011;35069;47.906;1.892;2023-02-19T03:25:35;6.85;;;3.53;;
49237;SDS011;35069;47.906;1.892;2023-02-19T03:28:24;4.82;;;3.03;;
49237;SDS011;35069;47.906;1.892;2023-02-19T03:31:12;5.05;;;3.20;;
49237;SDS011;35069;47.906;1.892;2023-02-19T03:33:42;4.40;;;3.30;;
49237;SDS011;35069;47.906;1.892;2023-02-19T03:36:11;3.47;;;2.78;;
49237;SDS011;35069;47.906;1.892;2023-02-19T03:39:22;5.15;;;2.72;;
49237;SDS011;35069;47.906;1.892;2023-02-19T03:55:05;4.57;;;3.10;;
49237;SDS011;35069;47.906;1.892;2023-02-19T04:03:00;3.50;;;3.20;;
49237;SDS011;35069;47.906;1.892;2023-02-19T04:05:34;9.38;;;3.78;;
49237;SDS011;35069;47.906;1.892;2023-02-19T04:08:13;7.22;;;3.35;;
49237;SDS011;35069;47.906;1.892;2023-02-19T04:10:41;5.63;;;3.55;;
49237;SDS011;35069;47.906;1.892;2023-02-19T04:13:19;3.47;;;2.72;;
49237;SDS011;35069;47.906;1.892;2023-02-19T04:15:49;6.00;;;2.90;;
49237;SDS011;35069;47.906;1.892;2023-02-19T04:18:18;4.68;;;2.80;;
49237;SDS011;35069;47.906;1.892;2023-02-19T04:20:48;3.67;;;3.33;;
49237;SDS011;35069;47.906;1.892;2023-02-19T04:23:15;2.85;;;2.58;;
49237;SDS011;35069;47.906;1.892;2023-02-19T04:25:45;6.55;;;3.53;;
49237;SDS011;35069;47.906;1.892;2023-02-19T04:28:14;5.35;;;3.65;;
49237;SDS011;35069;47.906;1.892;2023-02-19T04:30:41;5.30;;;3.67;;
49237;SDS011;35069;47.906;1.892;2023-02-19T04:33:07;5.03;;;3.00;;
49237;SDS011;35069;47.906;1.892;2023-02-19T04:35:33;4.68;;;3.40;;
49237;SDS011;35069;47.906;1.892;2023-02-19T04:37:58;5.35;;;2.72;;
49237;SDS011;35069;47.906;1.892;2023-02-19T04:40:24;4.22;;;3.28;;
49237;SDS011;35069;47.906;1.892;2023-02-19T04:42:50;5.32;;;3.00;;
49237;SDS011;35069;47.906;1.892;2023-02-19T04:45:15;4.55;;;2.90;;
49237;SDS011;35069;47.906;1.892;2023-02-19T04:47:41;4.20;;;3.20;;
49237;SDS011;35069;47.906;1.892;2023-02-19T04:50:06;4.35;;;3.13;;
49237;SDS011;35069;47.906;1.892;2023-02-19T04:52:32;7.78;;;3.05;;
49237;SDS011;35069;47.906;1.892;2023-02-19T04:54:58;6.60;;;4.35;;
49237;SDS011;35069;47.906;1.892;2023-02-19T04:57:23;6.50;;;4.32;;
49237;SDS011;35069;47.906;1.892;2023-02-19T04:59:49;5.72;;;3.58;;
49237;SDS011;35069;47.906;1.892;2023-02-19T05:02:14;3.67;;;2.63;;
49237;SDS011;35069;47.906;1.892;2023-02-19T05:04:40;5.20;;;3.20;;
49237;SDS011;35069;47.906;1.892;2023-02-19T05:07:05;5.05;;;3.13;;
49237;SDS011;35069;47.906;1.892;2023-02-19T05:09:31;4.43;;;3.78;;
49237;SDS011;35069;47.906;1.892;2023-02-19T05:11:57;3.70;;;3.17;;
49237;SDS011;35069;47.906;1.892;2023-02-19T05:14:22;5.88;;;3.58;;
49237;SDS011;35069;47.906;1.892;2023-02-19T05:16:48;4.63;;;3.03;;
49237;SDS011;35069;47.906;1.892;2023-02-19T05:19:13;3.72;;;3.30;;
49237;SDS011;35069;47.906;1.892;2023-02-19T05:21:39;7.20;;;3.33;;
49237;SDS011;35069;47.906;1.892;2023-02-19T05:24:05;4.93;;;3.55;;
49237;SDS011;35069;47.906;1.892;2023-02-19T05:26:31;4.60;;;2.97;;
49237;SDS011;35069;47.906;1.892;2023-02-19T05:28:56;7.40;;;3.60;;
49237;SDS011;35069;47.906;1.892;2023-02-19T05:31:23;3.60;;;3.17;;
49237;SDS011;35069;47.906;1.892;2023-02-19T05:33:49;3.90;;;3.13;;
49237;SDS011;35069;47.906;1.892;2023-02-19T05:36:19;6.90;;;4.03;;
49237;SDS011;35069;47.906;1.892;2023-02-19T05:38:45;4.82;;;3.97;;
49237;SDS011;35069;47.906;1.892;2023-02-19T05:41:13;3.70;;;2.72;;
49237;SDS011;35069;47.906;1.892;2023-02-19T05:43:40;4.03;;;2.85;;
49237;SDS011;35069;47.906;1.892;2023-02-19T05:46:08;4.30;;;3.33;;
49237;SDS011;35069;47.906;1.892;2023-02-19T05:48:34;9.00;;;3.63;;
49237;SDS011;35069;47.906;1.892;2023-02-19T05:51:03;5.25;;;3.08;;
49237;SDS011;35069;47.906;1.892;2023-02-19T05:53:31;6.55;;;3.83;;
49237;SDS011;35069;47.906;1.892;2023-02-19T05:55:57;4.55;;;3.42;;
49237;SDS011;35069;47.906;1.892;2023-02-19T05:58:23;4.18;;;3.03;;
49237;SDS011;35069;47.906;1.892;2023-02-19T06:00:49;3.88;;;3.35;;
49237;SDS011;35069;47.906;1.892;2023-02-19T06:03:15;4.95;;;3.55;;
49237;SDS011;35069;47.906;1.892;2023-02-19T06:05:40;4.97;;;3.22;;
49237;SDS011;35069;47.906;1.892;2023-02-19T06:08:06;5.00;;;3.65;;
49237;SDS011;35069;47.906;1.892;2023-02-19T06:10:32;5.35;;;3.55;;
49237;SDS011;35069;47.906;1.892;2023-02-19T06:12:57;5.63;;;3.53;;
49237;SDS011;35069;47.906;1.892;2023-02-19T06:15:23;4.28;;;3.08;;
49237;SDS011;35069;47.906;1.892;2023-02-19T06:17:48;8.95;;;3.58;;
49237;SDS011;35069;47.906;1.892;2023-02-19T06:20:14;4.05;;;3.33;;
49237;SDS011;35069;47.906;1.892;2023-02-19T06:22:40;13.80;;;4.05;;
49237;SDS011;35069;47.906;1.892;2023-02-19T06:25:05;9.63;;;3.72;;
49237;SDS011;35069;47.906;1.892;2023-02-19T06:27:36;6.45;;;3.45;;
49237;SDS011;35069;47.906;1.892;2023-02-19T06:30:01;3.53;;;3.22;;
49237;SDS011;35069;47.906;1.892;2023-02-19T06:32:27;7.03;;;3.70;;
49237;SDS011;35069;47.906;1.892;2023-02-19T06:34:53;5.55;;;3.00;;
49237;SDS011;35069;47.906;1.892;2023-02-19T06:37:18;7.35;;;4.57;;
49237;SDS011;35069;47.906;1.892;2023-02-19T06:39:44;5.03;;;3.85;;
49237;SDS011;35069;47.906;1.892;2023-02-19T06:42:09;4.63;;;3.20;;
49237;SDS011;35069;47.906;1.892;2023-02-19T06:44:35;5.13;;;4.13;;
49237;SDS011;35069;47.906;1.892;2023-02-19T06:47:01;4.85;;;4.18;;
49237;SDS011;35069;47.906;1.892;2023-02-19T06:49:26;4.72;;;3.60;;
49237;SDS011;35069;47.906;1.892;2023-02-19T06:51:52;4.95;;;3.08;;
49237;SDS011;35069;47.906;1.892;2023-02-19T06:54:18;6.38;;;3.50;;
49237;SDS011;35069;47.906;1.892;2023-02-19T06:56:43;5.93;;;3.60;;
49237;SDS011;35069;47.906;1.892;2023-02-19T06:59:10;5.43;;;3.85;;
49237;SDS011;35069;47.906;1.892;2023-02-19T07:01:38;3.65;;;3.35;;
49237;SDS011;35069;47.906;1.892;2023-02-19T07:04:04;3.72;;;3.35;;
49237;SDS011;35069;47.906;1.892;2023-02-19T07:06:31;4.43;;;3.50;;
49237;SDS011;35069;47.906;1.892;2023-02-19T07:08:57;3.60;;;3.30;;
49237;SDS011;35069;47.906;1.892;2023-02-19T07:11:24;7.97;;;4.47;;
49237;SDS011;35069;47.906;1.892;2023-02-19T07:13:53;5.30;;;3.83;;
49237;SDS011;35069;47.906;1.892;2023-02-19T07:16:20;6.10;;;3.00;;
49237;SDS011;35069;47.906;1.892;2023-02-19T07:18:46;5.43;;;3.35;;
49237;SDS011;35069;47.906;1.892;2023-02-19T07:21:12;5.68;;;3.40;;
49237;SDS011;35069;47.906;1.892;2023-02-19T07:23:39;3.72;;;2.88;;
49237;SDS011;35069;47.906;1.892;2023-02-19T07:26:12;4.60;;;3.30;;
49237;SDS011;35069;47.906;1.892;2023-02-19T07:28:40;3.42;;;3.00;;
49237;SDS011;35069;47.906;1.892;2023-02-19T07:31:10;3.35;;;2.95;;
49237;SDS011;35069;47.906;1.892;2023-02-19T07:33:36;5.50;;;3.25;;
49237;SDS011;35069;47.906;1.892;2023-02-19T07:36:02;7.63;;;4.05;;
49237;SDS011;35069;47.906;1.892;2023-02-19T07:38:27;6.47;;;4.97;;
49237;SDS011;35069;47.906;1.892;2023-02-19T07:40:54;5.38;;;3.58;;
49237;SDS011;35069;47.906;1.892;2023-02-19T07:43:22;9.32;;;5.07;;
49237;SDS011;35069;47.906;1.892;2023-02-19T07:45:49;4.93;;;3.88;;
49237;SDS011;35069;47.906;1.892;2023-02-19T07:48:15;6.20;;;3.28;;
49237;SDS011;35069;47.906;1.892;2023-02-19T07:50:42;6.35;;;3.83;;
49237;SDS011;35069;47.906;1.892;2023-02-19T07:53:24;5.47;;;3.80;;
49237;SDS011;35069;47.906;1.892;2023-02-19T07:55:51;8.32;;;5.70;;
49237;SDS011;35069;47.906;1.892;2023-02-19T07:58:17;8.93;;;5.85;;
49237;SDS011;35069;47.906;1.892;2023-02-19T08:00:43;6.43;;;4.28;;
49237;SDS011;35069;47.906;1.892;2023-02-19T08:03:08;8.95;;;4.30;;
49237;SDS011;35069;47.906;1.892;2023-02-19T08:05:37;7.55;;;4.65;;
49237;SDS011;35069;47.906;1.892;2023-02-19T08:08:05;5.07;;;4.57;;
49237;SDS011;35069;47.906;1.892;2023-02-19T08:10:32;9.98;;;4.40;;
49237;SDS011;35069;47.906;1.892;2023-02-19T08:13:17;5.00;;;3.97;;
49237;SDS011;35069;47.906;1.892;2023-02-19T08:18:18;4.03;;;3.63;;
49237;SDS011;35069;47.906;1.892;2023-02-19T08:20:47;6.05;;;4.13;;
49237;SDS011;35069;47.906;1.892;2023-02-19T08:23:13;8.10;;;3.75;;
49237;SDS011;35069;47.906;1.892;2023-02-19T08:25:41;4.03;;;2.95;;
49237;SDS011;35069;47.906;1.892;2023-02-19T08:28:08;5.60;;;3.78;;
49237;SDS011;35069;47.906;1.892;2023-02-19T08:30:35;4.00;;;3.53;;
49237;SDS011;35069;47.906;1.892;2023-02-19T08:33:02;7.70;;;3.92;;
49237;SDS011;35069;47.906;1.892;2023-02-19T08:35:28;5.30;;;4.35;;
49237;SDS011;35069;47.906;1.892;2023-02-19T08:37:57;3.75;;;3.10;;
49237;SDS011;35069;47.906;1.892;2023-02-19T08:40:25;5.30;;;3.17;;
49237;SDS011;35069;47.906;1.892;2023-02-19T08:42:51;5.55;;;3.10;;
49237;SDS011;35069;47.906;1.892;2023-02-19T08:45:17;3.55;;;2.45;;
49237;SDS011;35069;47.906;1.892;2023-02-19T08:47:43;9.73;;;3.33;;
49237;SDS011;35069;47.906;1.892;2023-02-19T08:50:09;4.82;;;3.28;;
49237;SDS011;35069;47.906;1.892;2023-02-19T08:52:35;4.95;;;3.08;;
49237;SDS011;35069;47.906;1.892;2023-02-19T08:55:01;3.45;;;2.97;;
49237;SDS011;35069;47.906;1.892;2023-02-19T08:57:28;4.07;;;3.03;;
49237;SDS011;35069;47.906;1.892;2023-02-19T08:59:54;3.17;;;2.50;;
49237;SDS011;35069;47.906;1.892;2023-02-19T09:02:21;3.83;;;2.78;;
49237;SDS011;35069;47.906;1.892;2023-02-19T09:04:47;6.03;;;3.55;;
49237;SDS011;35069;47.906;1.892;2023-02-19T09:07:13;3.67;;;3.08;;
49237;SDS011;35069;47.906;1.892;2023-02-19T09:09:39;7.43;;;2.92;;
49237;SDS011;35069;47.906;1.892;2023-02-19T09:12:08;3.67;;;2.63;;
49237;SDS011;35069;47.906;1.892;2023-02-19T09:14:35;5.35;;;2.58;;
49237;SDS011;35069;47.906;1.892;2023-02-19T09:17:03;2.83;;;2.40;;
49237;SDS011;35069;47.906;1.892;2023-02-19T09:19:30;3.10;;;2.80;;
49237;SDS011;35069;47.906;1.892;2023-02-19T09:21:56;3.80;;;2.40;;
49237;SDS011;35069;47.906;1.892;2023-02-19T09:24:22;3.15;;;2.20;;
49237;SDS011;35069;47.906;1.892;2023-02-19T09:26:52;4.30;;;2.60;;
49237;SDS011;35069;47.906;1.892;2023-02-19T09:29:18;3.83;;;2.63;;
49237;SDS011;35069;47.906;1.892;2023-02-19T09:31:45;5.68;;;3.00;;
49237;SDS011;35069;47.906;1.892;2023-02-19T09:34:11;4.60;;;2.00;;
49237;SDS011;35069;47.906;1.892;2023-02-19T09:36:37;7.43;;;3.10;;
49237;SDS011;35069;47.906;1.892;2023-02-19T09:39:03;5.82;;;1.77;;
49237;SDS011;35069;47.906;1.892;2023-02-19T09:41:50;3.22;;;1.90;;
49237;SDS011;35069;47.906;1.892;2023-02-19T09:44:23;8.82;;;3.92;;
49237;SDS011;35069;47.906;1.892;2023-02-19T09:46:52;3.08;;;1.63;;
49237;SDS011;35069;47.906;1.892;2023-02-19T09:49:23;5.03;;;1.55;;
49237;SDS011;35069;47.906;1.892;2023-02-19T09:52:05;6.93;;;1.70;;
49237;SDS011;35069;47.906;1.892;2023-02-19T09:54:32;3.22;;;1.20;;
49237;SDS011;35069;47.906;1.892;2023-02-19T09:57:00;5.57;;;1.65;;
49237;SDS011;35069;47.906;1.892;2023-02-19T09:59:39;5.80;;;1.50;;
49237;SDS011;35069;47.906;1.892;2023-02-19T10:02:18;4.50;;;1.50;;
49237;SDS011;35069;47.906;1.892;2023-02-19T10:04:46;5.60;;;1.45;;
49237;SDS011;35069;47.906;1.892;2023-02-19T10:07:16;4.25;;;1.67;;
49237;SDS011;35069;47.906;1.892;2023-02-19T10:09:45;4.00;;;1.63;;
49237;SDS011;35069;47.906;1.892;2023-02-19T10:12:26;6.70;;;1.83;;
49237;SDS011;35069;47.906;1.892;2023-02-19T10:14:56;6.50;;;1.25;;
49237;SDS011;35069;47.906;1.892;2023-02-19T10:17:27;6.85;;;1.30;;
49237;SDS011;35069;47.906;1.892;2023-02-19T10:19:55;7.53;;;1.52;;
49237;SDS011;35069;47.906;1.892;2023-02-19T10:22:22;4.38;;;1.55;;
49237;SDS011;35069;47.906;1.892;2023-02-19T10:24:49;4.00;;;0.80;;
49237;SDS011;35069;47.906;1.892;2023-02-19T10:27:18;2.20;;;0.80;;
49237;SDS011;35069;47.906;1.892;2023-02-19T10:29:45;5.75;;;1.25;;
49237;SDS011;35069;47.906;1.892;2023-02-19T10:37:32;1.92;;;0.82;;
49237;SDS011;35069;47.906;1.892;2023-02-19T10:39:59;3.72;;;1.00;;
49237;SDS011;35069;47.906;1.892;2023-02-19T10:42:25;1.92;;;0.80;;
49237;SDS011;35069;47.906;1.892;2023-02-19T10:44:54;4.47;;;1.02;;
49237;SDS011;35069;47.906;1.892;2023-02-19T10:47:26;4.32;;;1.55;;
49237;SDS011;35069;47.906;1.892;2023-02-19T10:49:54;2.28;;;0.80;;
49237;SDS011;35069;47.906;1.892;2023-02-19T10:54:51;5.15;;;1.55;;
49237;SDS011;35069;47.906;1.892;2023-02-19T10:57:22;4.72;;;1.40;;
49237;SDS011;35069;47.906;1.892;2023-02-19T11:00:54;3.10;;;1.13;;
49237;SDS011;35069;47.906;1.892;2023-02-19T11:03:11;3.17;;;1.38;;
49237;SDS011;35069;47.906;1.892;2023-02-19T11:06:00;1.83;;;0.70;;
49237;SDS011;35069;47.906;1.892;2023-02-19T11:08:28;3.50;;;0.98;;
49237;SDS011;35069;47.906;1.892;2023-02-19T11:10:58;2.53;;;1.27;;
49237;SDS011;35069;47.906;1.892;2023-02-19T11:13:27;8.35;;;1.52;;
49237;SDS011;35069;47.906;1.892;2023-02-19T11:18:29;1.95;;;0.90;;
49237;SDS011;35069;47.906;1.892;2023-02-19T11:20:57;1.55;;;0.80;;
49237;SDS011;35069;47.906;1.892;2023-02-19T11:25:56;1.73;;;0.90;;
49237;SDS011;35069;47.906;1.892;2023-02-19T11:28:37;3.63;;;1.00;;
49237;SDS011;35069;47.906;1.892;2023-02-19T11:31:23;1.42;;;0.90;;
49237;SDS011;35069;47.906;1.892;2023-02-19T11:33:59;2.47;;;1.25;;
49237;SDS011;35069;47.906;1.892;2023-02-19T11:36:30;4.60;;;1.92;;
49237;SDS011;35069;47.906;1.892;2023-02-19T11:39:02;3.45;;;1.50;;
49237;SDS011;35069;47.906;1.892;2023-02-19T11:44:36;5.82;;;1.40;;
49237;SDS011;35069;47.906;1.892;2023-02-19T11:56:01;2.58;;;1.15;;
49237;SDS011;35069;47.906;1.892;2023-02-19T12:03:48;4.60;;;0.90;;
49237;SDS011;35069;47.906;1.892;2023-02-19T12:20:46;1.75;;;1.27;;
49237;SDS011;35069;47.906;1.892;2023-02-19T12:24:22;3.45;;;1.00;;
49237;SDS011;35069;47.906;1.892;2023-02-19T12:32:48;5.20;;;2.03;;
49237;SDS011;35069;47.906;1.892;2023-02-19T12:43:20;7.18;;;1.15;;
49237;SDS011;35069;47.906;1.892;2023-02-19T12:45:49;4.30;;;1.20;;
49237;SDS011;35069;47.906;1.892;2023-02-19T12:48:24;5.55;;;1.40;;
49237;SDS011;35069;47.906;1.892;2023-02-19T12:50:54;6.03;;;1.20;;
49237;SDS011;35069;47.906;1.892;2023-02-19T12:56:07;6.40;;;1.58;;
49237;SDS011;35069;47.906;1.892;2023-02-19T12:58:41;9.02;;;1.83;;
49237;SDS011;35069;47.906;1.892;2023-02-19T13:01:12;4.10;;;1.42;;
49237;SDS011;35069;47.906;1.892;2023-02-19T13:03:46;7.97;;;1.92;;
49237;SDS011;35069;47.906;1.892;2023-02-19T13:06:52;4.35;;;1.70;;
49237;SDS011;35069;47.906;1.892;2023-02-19T13:09:20;4.72;;;1.40;;
49237;SDS011;35069;47.906;1.892;2023-02-19T13:11:54;4.88;;;1.73;;
49237;SDS011;35069;47.906;1.892;2023-02-19T13:25:42;2.30;;;1.13;;
49237;SDS011;35069;47.906;1.892;2023-02-19T13:33:31;7.15;;;1.38;;
49237;SDS011;35069;47.906;1.892;2023-02-19T13:36:13;4.20;;;1.17;;
49237;SDS011;35069;47.906;1.892;2023-02-19T13:38:45;5.30;;;1.30;;
49237;SDS011;35069;47.906;1.892;2023-02-19T13:41:19;2.22;;;1.27;;
49237;SDS011;35069;47.906;1.892;2023-02-19T13:43:58;7.03;;;1.33;;
49237;SDS011;35069;47.906;1.892;2023-02-19T13:46:32;5.38;;;1.35;;
49237;SDS011;35069;47.906;1.892;2023-02-19T13:51:54;2.30;;;1.02;;
49237;SDS011;35069;47.906;1.892;2023-02-19T13:54:28;4.93;;;1.55;;
49237;SDS011;35069;47.906;1.892;2023-02-19T13:59:52;5.97;;;1.25;;
49237;SDS011;35069;47.906;1.892;2023-02-19T14:04:45;3.28;;;1.77;;
49237;SDS011;35069;47.906;1.892;2023-02-19T14:09:59;3.78;;;1.52;;
49237;SDS011;35069;47.906;1.892;2023-02-19T14:12:33;4.13;;;1.35;;
49237;SDS011;35069;47.906;1.892;2023-02-19T14:18:38;2.05;;;0.98;;
49237;SDS011;35069;47.906;1.892;2023-02-19T14:21:06;4.20;;;1.60;;
49237;SDS011;35069;47.906;1.892;2023-02-19T14:23:39;5.53;;;1.67;;
49237;SDS011;35069;47.906;1.892;2023-02-19T14:26:05;11.75;;;1.90;;
49237;SDS011;35069;47.906;1.892;2023-02-19T14:28:44;6.85;;;1.50;;
49237;SDS011;35069;47.906;1.892;2023-02-19T14:33:49;4.57;;;1.40;;
49237;SDS011;35069;47.906;1.892;2023-02-19T14:36:34;5.38;;;2.00;;
49237;SDS011;35069;47.906;1.892;2023-02-19T14:39:11;3.38;;;1.42;;
49237;SDS011;35069;47.906;1.892;2023-02-19T14:41:43;9.07;;;1.83;;
49237;SDS011;35069;47.906;1.892;2023-02-19T14:44:15;7.88;;;1.73;;
49237;SDS011;35069;47.906;1.892;2023-02-19T14:51:52;5.47;;;1.90;;
49237;SDS011;35069;47.906;1.892;2023-02-19T14:54:38;7.45;;;1.80;;
49237;SDS011;35069;47.906;1.892;2023-02-19T14:57:27;8.55;;;1.60;;
49237;SDS011;35069;47.906;1.892;2023-02-19T15:00:00;8.18;;;2.58;;
49237;SDS011;35069;47.906;1.892;2023-02-19T15:02:29;4.65;;;1.65;;
49237;SDS011;35069;47.906;1.892;2023-02-19T15:04:56;3.53;;;2.00;;
49237;SDS011;35069;47.906;1.892;2023-02-19T15:07:26;3.78;;;1.20;;
49237;SDS011;35069;47.906;1.892;2023-02-19T15:09:56;9.38;;;1.40;;
49237;SDS011;35069;47.906;1.892;2023-02-19T15:12:27;4.85;;;1.63;;
49237;SDS011;35069;47.906;1.892;2023-02-19T15:14:58;4.00;;;1.50;;
49237;SDS011;35069;47.906;1.892;2023-02-19T15:17:27;5.68;;;0.93;;
49237;SDS011;35069;47.906;1.892;2023-02-19T15:19:55;4.72;;;1.02;;
49237;SDS011;35069;47.906;1.892;2023-02-19T15:22:24;4.93;;;1.70;;
49237;SDS011;35069;47.906;1.892;2023-02-19T15:24:52;2.80;;;0.93;;
49237;SDS011;35069;47.906;1.892;2023-02-19T15:27:19;3.03;;;1.20;;
49237;SDS011;35069;47.906;1.892;2023-02-19T15:29:47;2.88;;;1.10;;
49237;SDS011;35069;47.906;1.892;2023-02-19T15:32:16;8.27;;;1.77;;
49237;SDS011;35069;47.906;1.892;2023-02-19T15:34:56;6.28;;;1.27;;
49237;SDS011;35069;47.906;1.892;2023-02-19T15:37:29;6.90;;;2.42;;
49237;SDS011;35069;47.906;1.892;2023-02-19T15:39:58;5.10;;;1.10;;
49237;SDS011;35069;47.906;1.892;2023-02-19T15:42:30;2.30;;;1.08;;
49237;SDS011;35069;47.906;1.892;2023-02-19T15:45:33;3.25;;;1.15;;
49237;SDS011;35069;47.906;1.892;2023-02-19T15:48:07;1.63;;;1.10;;
49237;SDS011;35069;47.906;1.892;2023-02-19T15:50:40;2.88;;;1.10;;
49237;SDS011;35069;47.906;1.892;2023-02-19T15:53:17;4.75;;;1.13;;
49237;SDS011;35069;47.906;1.892;2023-02-19T15:58:25;3.50;;;1.27;;
49237;SDS011;35069;47.906;1.892;2023-02-19T16:01:05;2.28;;;1.10;;
49237;SDS011;35069;47.906;1.892;2023-02-19T16:03:39;3.05;;;2.20;;
49237;SDS011;35069;47.906;1.892;2023-02-19T16:06:09;3.40;;;1.02;;
49237;SDS011;35069;47.906;1.892;2023-02-19T16:08:39;2.67;;;1.27;;
49237;SDS011;35069;47.906;1.892;2023-02-19T16:13:48;3.25;;;1.13;;
49237;SDS011;35069;47.906;1.892;2023-02-19T16:16:27;1.92;;;1.25;;
49237;SDS011;35069;47.906;1.892;2023-02-19T16:18:55;5.75;;;1.60;;
49237;SDS011;35069;47.906;1.892;2023-02-19T16:21:22;3.45;;;1.00;;
49237;SDS011;35069;47.906;1.892;2023-02-19T16:23:50;5.15;;;2.17;;
49237;SDS011;35069;47.906;1.892;2023-02-19T16:26:23;1.85;;;1.00;;
49237;SDS011;35069;47.906;1.892;2023-02-19T16:28:49;2.92;;;0.88;;
49237;SDS011;35069;47.906;1.892;2023-02-19T16:31:16;5.60;;;1.15;;
49237;SDS011;35069;47.906;1.892;2023-02-19T16:33:48;2.92;;;1.20;;
49237;SDS011;35069;47.906;1.892;2023-02-19T16:36:15;1.98;;;1.02;;
49237;SDS011;35069;47.906;1.892;2023-02-19T16:41:27;5.65;;;1.48;;
49237;SDS011;35069;47.906;1.892;2023-02-19T16:43:53;4.28;;;1.50;;
49237;SDS011;35069;47.906;1.892;2023-02-19T16:46:19;2.35;;;0.93;;
49237;SDS011;35069;47.906;1.892;2023-02-19T16:48:44;1.60;;;1.10;;
49237;SDS011;35069;47.906;1.892;2023-02-19T16:51:14;2.65;;;1.10;;
49237;SDS011;35069;47.906;1.892;2023-02-19T16:53:45;3.40;;;1.38;;
49237;SDS011;35069;47.906;1.892;2023-02-19T16:56:15;3.30;;;1.00;;
49237;SDS011;35069;47.906;1.892;2023-02-19T16:58:42;2.08;;;1.20;;
49237;SDS011;35069;47.906;1.892;2023-02-19T17:01:08;8.05;;;2.63;;
49237;SDS011;35069;47.906;1.892;2023-02-19T17:03:34;2.05;;;1.55;;
49237;SDS011;35069;47.906;1.892;2023-02-19T17:06:02;5.75;;;1.60;;
49237;SDS011;35069;47.906;1.892;2023-02-19T17:08:32;4.90;;;1.33;;
49237;SDS011;35069;47.906;1.892;2023-02-19T17:11:01;4.82;;;1.23;;
49237;SDS011;35069;47.906;1.892;2023-02-19T17:13:28;5.03;;;1.63;;
49237;SDS011;35069;47.906;1.892;2023-02-19T17:15:54;2.88;;;1.30;;
49237;SDS011;35069;47.906;1.892;2023-02-19T17:18:21;4.40;;;1.60;;
49237;SDS011;35069;47.906;1.892;2023-02-19T17:20:52;7.28;;;2.22;;
49237;SDS011;35069;47.906;1.892;2023-02-19T17:23:39;3.35;;;1.55;;
49237;SDS011;35069;47.906;1.892;2023-02-19T17:26:05;3.63;;;1.33;;
49237;SDS011;35069;47.906;1.892;2023-02-19T17:28:30;5.18;;;1.88;;
49237;SDS011;35069;47.906;1.892;2023-02-19T17:30:56;5.55;;;2.00;;